createdAt,value
2018-08-12T00:01:14.847Z,4.70
2018-08-12T00:03:42.121Z,4.70
2018-08-12T00:06:09.831Z,4.40
2018-08-12T00:08:37.863Z,4.63
2018-08-12T00:11:05.082Z,5.20
2018-08-12T00:13:32.211Z,5.10
2018-08-12T00:15:59.535Z,4.30
2018-08-12T00:18:26.710Z,4.30
2018-08-12T00:20:53.888Z,5.37
2018-08-12T00:23:21.091Z,5.10
2018-08-12T00:25:48.267Z,4.43
2018-08-12T00:28:15.592Z,4.00
2018-08-12T00:30:42.794Z,4.90
2018-08-12T00:33:09.969Z,4.30
2018-08-12T00:35:37.092Z,4.27
2018-08-12T00:38:04.460Z,4.30
2018-08-12T00:40:31.695Z,3.90
2018-08-12T00:42:58.948Z,4.60
2018-08-12T00:45:26.165Z,3.70
2018-08-12T00:47:53.340Z,4.20
2018-08-12T00:50:20.486Z,4.30
2018-08-12T00:52:47.647Z,4.10
2018-08-12T00:55:16.103Z,3.60
2018-08-12T00:57:44.130Z,3.90
2018-08-12T01:00:13.398Z,3.60
2018-08-12T01:02:40.601Z,3.50
2018-08-12T01:05:09.944Z,3.63
2018-08-12T01:07:37.259Z,3.80
2018-08-12T01:10:05.949Z,3.70
2018-08-12T01:12:33.095Z,3.73
2018-08-12T01:15:00.259Z,4.00
2018-08-12T01:17:27.394Z,3.00
2018-08-12T01:19:54.542Z,3.60
2018-08-12T01:22:21.665Z,3.63
2018-08-12T01:24:49.056Z,3.57
2018-08-12T01:27:16.380Z,4.63
2018-08-12T01:29:43.568Z,4.10
2018-08-12T01:32:10.764Z,3.43
2018-08-12T01:34:37.969Z,3.60
2018-08-12T01:37:05.148Z,4.20
2018-08-12T01:39:32.303Z,4.97
2018-08-12T01:41:59.517Z,5.23
2018-08-12T01:44:26.662Z,6.50
2018-08-12T01:46:53.784Z,8.83
2018-08-12T01:49:21.059Z,8.63
2018-08-12T01:51:48.881Z,9.23
2018-08-12T01:54:16.172Z,9.30
2018-08-12T01:56:43.330Z,8.93
2018-08-12T01:59:10.505Z,9.10
2018-08-12T02:01:37.662Z,7.63
2018-08-12T02:04:04.784Z,8.17
2018-08-12T02:06:31.915Z,6.23
2018-08-12T02:08:59.190Z,6.57
2018-08-12T02:11:26.301Z,5.53
2018-08-12T02:13:53.448Z,5.20
2018-08-12T02:16:20.630Z,4.83
2018-08-12T02:18:48.620Z,4.77
2018-08-12T02:21:15.753Z,4.07
2018-08-12T02:23:42.933Z,4.67
2018-08-12T02:26:10.069Z,4.67
2018-08-12T02:28:37.231Z,4.70
2018-08-12T02:31:04.505Z,4.83
2018-08-12T02:33:38.390Z,4.70
2018-08-12T02:36:05.598Z,4.70
2018-08-12T02:38:32.733Z,4.57
2018-08-12T02:41:00.092Z,5.03
2018-08-12T02:43:27.249Z,4.20
2018-08-12T02:45:54.469Z,4.40
2018-08-12T02:48:21.692Z,4.83
2018-08-12T02:50:48.842Z,4.00
2018-08-12T02:53:15.982Z,4.30
2018-08-12T02:55:47.765Z,4.60
2018-08-12T02:58:14.961Z,4.17
2018-08-12T03:00:42.104Z,3.77
2018-08-12T03:03:09.221Z,4.40
2018-08-12T03:05:36.356Z,4.30
2018-08-12T03:08:03.608Z,4.10
2018-08-12T03:10:30.788Z,4.00
2018-08-12T03:12:57.931Z,3.47
2018-08-12T03:15:25.078Z,3.80
2018-08-12T03:17:52.325Z,3.80
2018-08-12T03:20:19.492Z,5.17
2018-08-12T03:22:46.614Z,5.20
2018-08-12T03:25:13.685Z,5.50
2018-08-12T03:27:40.795Z,5.50
2018-08-12T03:30:09.074Z,12.53
2018-08-12T03:32:36.102Z,5.67
2018-08-12T03:35:03.295Z,10.67
2018-08-12T03:37:30.411Z,8.20
2018-08-12T03:39:57.636Z,6.77
2018-08-12T03:42:24.721Z,5.97
2018-08-12T03:44:51.851Z,6.57
2018-08-12T03:47:19.002Z,5.50
2018-08-12T03:49:46.153Z,6.00
2018-08-12T03:52:13.327Z,5.37
2018-08-12T03:54:40.434Z,4.80
2018-08-12T03:57:07.635Z,5.57
2018-08-12T03:59:34.801Z,4.80
2018-08-12T04:02:01.983Z,5.13
2018-08-12T04:04:29.095Z,5.57
2018-08-12T04:06:56.323Z,4.53
2018-08-12T04:09:23.472Z,4.80
2018-08-12T04:11:50.672Z,4.70
2018-08-12T04:14:17.799Z,5.60
2018-08-12T04:16:52.572Z,5.00
2018-08-12T04:19:19.684Z,4.80
2018-08-12T04:21:46.811Z,5.13
2018-08-12T04:24:13.972Z,5.30
2018-08-12T04:26:41.085Z,5.43
2018-08-12T04:29:08.305Z,4.90
2018-08-12T04:31:35.468Z,5.03
2018-08-12T04:34:02.635Z,4.33
2018-08-12T04:36:29.814Z,5.00
2018-08-12T04:38:56.985Z,4.87
2018-08-12T04:41:24.305Z,5.03
2018-08-12T04:43:51.409Z,4.43
2018-08-12T04:46:18.502Z,4.70
2018-08-12T04:48:45.595Z,5.10
2018-08-12T04:51:12.799Z,4.40
2018-08-12T04:53:39.931Z,3.80
2018-08-12T04:56:07.140Z,4.67
2018-08-12T04:58:34.231Z,4.60
2018-08-12T05:01:01.368Z,4.90
2018-08-12T05:03:28.995Z,4.73
2018-08-12T05:05:58.397Z,4.73
2018-08-12T05:08:26.461Z,5.37
2018-08-12T05:10:53.595Z,4.40
2018-08-12T05:13:20.696Z,4.90
2018-08-12T05:15:47.804Z,4.70
2018-08-12T05:18:14.963Z,4.70
2018-08-12T05:20:42.115Z,5.30
2018-08-12T05:23:09.252Z,4.77
2018-08-12T05:25:36.756Z,5.10
2018-08-12T05:28:03.947Z,5.63
2018-08-12T05:30:31.113Z,4.87
2018-08-12T05:32:58.283Z,5.33
2018-08-12T05:35:25.437Z,5.10
2018-08-12T05:37:52.658Z,5.73
2018-08-12T05:40:19.837Z,5.23
2018-08-12T05:42:47.052Z,5.40
2018-08-12T05:45:14.250Z,5.70
2018-08-12T05:47:41.448Z,5.53
2018-08-12T05:50:09.779Z,5.63
2018-08-12T05:52:36.892Z,5.77
2018-08-12T05:55:04.329Z,6.40
2018-08-12T05:57:31.476Z,5.83
2018-08-12T05:59:58.638Z,5.90
2018-08-12T06:02:25.845Z,5.50
2018-08-12T06:04:53.111Z,6.47
2018-08-12T06:07:20.267Z,5.43
2018-08-12T06:09:47.437Z,6.20
2018-08-12T06:12:14.591Z,6.43
2018-08-12T06:14:41.753Z,5.80
2018-08-12T06:17:08.865Z,6.67
2018-08-12T06:19:36.043Z,6.40
2018-08-12T06:22:03.205Z,5.43
2018-08-12T06:24:30.310Z,7.13
2018-08-12T06:26:58.562Z,6.40
2018-08-12T06:29:25.740Z,5.90
2018-08-12T06:31:52.906Z,6.53
2018-08-12T06:34:20.071Z,6.20
2018-08-12T06:36:47.183Z,7.00
2018-08-12T06:39:14.402Z,6.30
2018-08-12T06:41:41.580Z,5.77
2018-08-12T06:44:08.754Z,7.70
2018-08-12T06:46:35.904Z,6.57
2018-08-12T06:49:03.070Z,6.60
2018-08-12T06:51:30.233Z,7.10
2018-08-12T06:53:57.464Z,6.47
2018-08-12T06:56:24.780Z,6.50
2018-08-12T06:58:51.911Z,5.77
2018-08-12T07:01:19.040Z,6.23
2018-08-12T07:03:46.209Z,6.10
2018-08-12T07:06:13.900Z,5.80
2018-08-12T07:08:41.131Z,5.97
2018-08-12T07:11:08.367Z,6.83
2018-08-12T07:13:35.578Z,6.20
2018-08-12T07:16:02.796Z,6.07
2018-08-12T07:18:29.915Z,6.73
2018-08-12T07:20:57.074Z,10.17
2018-08-12T07:23:24.252Z,7.03
2018-08-12T07:25:51.552Z,6.97
2018-08-12T07:28:18.721Z,6.90
2018-08-12T07:30:45.879Z,6.87
2018-08-12T07:33:13.140Z,7.70
2018-08-12T07:35:40.280Z,7.07
2018-08-12T07:38:07.530Z,9.10
2018-08-12T07:40:34.703Z,8.10
2018-08-12T07:43:01.877Z,16.50
2018-08-12T07:45:29.054Z,9.70
2018-08-12T07:47:56.226Z,6.73
2018-08-12T07:50:29.635Z,6.53
2018-08-12T07:52:56.844Z,5.27
2018-08-12T07:55:24.050Z,5.63
2018-08-12T07:57:51.260Z,9.13
2018-08-12T08:00:19.506Z,6.50
2018-08-12T08:02:47.103Z,8.17
2018-08-12T08:05:14.360Z,6.70
2018-08-12T08:07:41.528Z,6.70
2018-08-12T08:10:10.713Z,4.40
2018-08-12T08:12:38.632Z,5.27
2018-08-12T08:15:07.732Z,5.10
2018-08-12T08:17:34.917Z,5.87
2018-08-12T08:20:02.120Z,5.67
2018-08-12T08:22:29.357Z,14.90
2018-08-12T08:24:56.558Z,19.27
2018-08-12T08:27:23.782Z,10.83
2018-08-12T08:29:50.939Z,5.40
2018-08-12T08:32:18.123Z,5.53
2018-08-12T08:34:45.225Z,7.30
2018-08-12T08:37:12.408Z,4.80
2018-08-12T08:39:39.576Z,4.20
2018-08-12T08:42:06.746Z,5.67
2018-08-12T08:44:34.439Z,5.80
2018-08-12T08:47:01.615Z,12.60
2018-08-12T08:49:29.129Z,16.60
2018-08-12T08:51:56.358Z,4.53
2018-08-12T08:54:23.603Z,3.80
2018-08-12T08:56:50.813Z,3.30
2018-08-12T08:59:17.960Z,4.50
2018-08-12T09:01:46.104Z,3.87
2018-08-12T09:04:13.290Z,3.40
2018-08-12T09:06:41.060Z,3.90
2018-08-12T09:09:10.559Z,3.30
2018-08-12T09:11:37.413Z,4.07
2018-08-12T09:14:04.717Z,3.70
2018-08-12T09:16:32.014Z,3.90
2018-08-12T09:18:59.192Z,3.10
2018-08-12T09:21:26.345Z,3.07
2018-08-12T09:23:53.671Z,2.90
2018-08-12T09:26:20.900Z,2.50
2018-08-12T09:28:48.111Z,3.00
2018-08-12T09:31:15.310Z,3.10
2018-08-12T09:33:42.749Z,3.50
2018-08-12T09:36:09.913Z,3.10
2018-08-12T09:38:37.165Z,3.20
2018-08-12T09:41:04.588Z,2.50
2018-08-12T09:43:31.753Z,2.70
2018-08-12T09:45:58.840Z,3.00
2018-08-12T09:48:25.968Z,3.00
2018-08-12T09:50:53.060Z,2.70
2018-08-12T09:53:20.249Z,3.00
2018-08-12T09:55:47.424Z,3.20
2018-08-12T09:58:14.591Z,3.30
2018-08-12T10:00:41.845Z,7.53
2018-08-12T10:03:09.621Z,2.50
2018-08-12T10:05:36.810Z,3.20
2018-08-12T10:08:04.029Z,2.77
2018-08-12T10:10:31.297Z,4.37
2018-08-12T10:12:58.550Z,3.03
2018-08-12T10:15:25.793Z,2.80
2018-08-12T10:17:55.162Z,3.70
2018-08-12T10:20:22.420Z,2.70
2018-08-12T10:22:49.627Z,3.00
2018-08-12T10:25:17.334Z,3.23
2018-08-12T10:27:44.742Z,7.77
2018-08-12T10:30:13.076Z,3.13
2018-08-12T10:32:40.370Z,3.40
2018-08-12T10:35:09.165Z,3.03
2018-08-12T10:37:36.458Z,2.67
2018-08-12T10:40:05.348Z,2.70
2018-08-12T10:42:32.580Z,3.03
2018-08-12T10:45:00.237Z,2.83
2018-08-12T10:47:27.448Z,2.57
2018-08-12T10:49:54.758Z,2.70
2018-08-12T10:52:21.982Z,2.33
2018-08-12T10:54:49.139Z,2.60
2018-08-12T10:57:16.327Z,2.60
2018-08-12T10:59:43.638Z,2.87
2018-08-12T11:02:10.966Z,2.83
2018-08-12T11:04:38.280Z,4.30
2018-08-12T11:07:05.531Z,2.40
2018-08-12T11:09:32.720Z,2.77
2018-08-12T11:12:00.614Z,3.00
2018-08-12T11:14:27.781Z,2.90
2018-08-12T11:16:54.887Z,2.97
2018-08-12T11:19:22.069Z,3.00
2018-08-12T11:21:49.314Z,3.10
2018-08-12T11:24:16.447Z,2.47
2018-08-12T11:26:43.637Z,2.73
2018-08-12T11:29:10.793Z,2.53
2018-08-12T11:31:37.935Z,2.43
2018-08-12T11:34:05.435Z,2.67
2018-08-12T11:36:32.627Z,2.50
2018-08-12T11:38:59.836Z,2.67
2018-08-12T11:41:27.045Z,2.50
2018-08-12T11:43:54.221Z,3.00
2018-08-12T11:46:21.437Z,2.80
2018-08-12T11:48:49.250Z,2.70
2018-08-12T11:51:16.417Z,2.70
2018-08-12T11:53:43.601Z,2.50
2018-08-12T11:56:10.819Z,2.53
2018-08-12T11:58:38.588Z,2.47
2018-08-12T12:01:05.742Z,2.40
2018-08-12T12:03:32.983Z,3.07
2018-08-12T12:06:00.141Z,3.10
2018-08-12T12:08:27.349Z,2.40
2018-08-12T12:10:54.464Z,2.23
2018-08-12T12:13:21.630Z,2.57
2018-08-12T12:15:48.885Z,3.00
2018-08-12T12:18:16.137Z,2.70
2018-08-12T12:20:43.404Z,2.80
2018-08-12T12:23:10.552Z,2.33
2018-08-12T12:25:37.762Z,2.37
2018-08-12T12:28:04.918Z,3.20
2018-08-12T12:30:32.130Z,2.30
2018-08-12T12:32:59.360Z,2.50
2018-08-12T12:35:26.506Z,3.10
2018-08-12T12:37:54.253Z,2.87
2018-08-12T12:40:21.499Z,2.80
2018-08-12T12:42:48.745Z,3.00
2018-08-12T12:45:16.370Z,3.80
2018-08-12T12:47:44.053Z,2.53
2018-08-12T12:50:14.073Z,2.57
2018-08-12T12:52:41.285Z,3.40
2018-08-12T12:55:08.505Z,2.60
2018-08-12T12:57:35.755Z,2.83
2018-08-12T13:00:07.095Z,2.60
2018-08-12T13:02:34.400Z,2.83
2018-08-12T13:05:01.718Z,2.70
2018-08-12T13:07:29.073Z,2.57
2018-08-12T13:09:56.620Z,5.07
2018-08-12T13:12:23.851Z,2.93
2018-08-12T13:14:51.043Z,2.63
2018-08-12T13:17:18.316Z,2.97
2018-08-12T13:19:46.614Z,2.70
2018-08-12T13:22:14.162Z,2.60
2018-08-12T13:24:41.326Z,2.30
2018-08-12T13:27:08.688Z,3.17
2018-08-12T13:29:40.820Z,3.27
2018-08-12T13:32:07.998Z,2.73
2018-08-12T13:34:35.293Z,2.60
2018-08-12T13:37:02.516Z,4.07
2018-08-12T13:39:29.801Z,3.00
2018-08-12T13:41:57.111Z,2.53
2018-08-12T13:44:24.313Z,2.37
2018-08-12T13:46:51.657Z,2.57
2018-08-12T13:49:19.121Z,3.27
2018-08-12T13:51:46.465Z,2.90
2018-08-12T13:54:13.734Z,3.00
2018-08-12T13:56:41.083Z,2.73
2018-08-12T13:59:08.341Z,3.20
2018-08-12T14:01:35.578Z,3.47
2018-08-12T14:04:02.787Z,3.50
2018-08-12T14:06:30.113Z,3.23
2018-08-12T14:08:57.332Z,3.13
2018-08-12T14:11:25.524Z,2.60
2018-08-12T14:13:52.789Z,2.60
2018-08-12T14:16:19.923Z,3.20
2018-08-12T14:18:48.011Z,2.57
2018-08-12T14:21:15.360Z,2.70
2018-08-12T14:23:42.551Z,2.50
2018-08-12T14:26:11.528Z,2.70
2018-08-12T14:28:38.672Z,2.77
2018-08-12T14:31:05.912Z,2.53
2018-08-12T14:33:33.195Z,2.27
2018-08-12T14:36:01.374Z,2.83
2018-08-12T14:38:28.627Z,3.00
2018-08-12T14:40:55.869Z,3.57
2018-08-12T14:43:23.295Z,2.93
2018-08-12T14:45:50.481Z,2.60
2018-08-12T14:48:17.737Z,3.00
2018-08-12T14:50:44.901Z,2.77
2018-08-12T14:53:12.152Z,3.47
2018-08-12T14:55:40.016Z,3.70
2018-08-12T14:58:07.832Z,5.83
2018-08-12T15:00:35.573Z,4.07
2018-08-12T15:03:03.286Z,3.30
2018-08-12T15:05:30.698Z,2.67
2018-08-12T15:07:57.951Z,2.87
2018-08-12T15:10:25.928Z,2.63
2018-08-12T15:12:53.086Z,2.80
2018-08-12T15:15:20.311Z,2.80
2018-08-12T15:17:47.920Z,2.83
2018-08-12T15:20:15.866Z,3.60
2018-08-12T15:22:43.112Z,2.33
2018-08-12T15:25:13.026Z,3.10
2018-08-12T15:27:41.432Z,2.97
2018-08-12T15:30:09.605Z,2.50
2018-08-12T15:32:36.883Z,2.83
2018-08-12T15:35:04.403Z,2.87
2018-08-12T15:37:31.600Z,2.70
2018-08-12T15:40:00.072Z,3.10
2018-08-12T15:42:27.377Z,3.20
2018-08-12T15:44:54.684Z,2.80
2018-08-12T15:47:22.064Z,7.60
2018-08-12T15:49:49.335Z,3.47
2018-08-12T15:52:16.530Z,3.63
2018-08-12T15:54:43.974Z,3.13
2018-08-12T15:57:12.152Z,3.20
2018-08-12T15:59:39.403Z,2.50
2018-08-12T16:02:07.234Z,3.03
2018-08-12T16:04:34.471Z,3.40
2018-08-12T16:07:06.955Z,2.60
2018-08-12T16:09:34.355Z,2.83
2018-08-12T16:12:01.621Z,2.97
2018-08-12T16:14:28.813Z,3.63
2018-08-12T16:16:56.179Z,2.77
2018-08-12T16:19:26.270Z,3.30
2018-08-12T16:21:53.922Z,3.00
2018-08-12T16:24:21.674Z,3.33
2018-08-12T16:26:48.990Z,3.03
2018-08-12T16:29:16.265Z,2.83
2018-08-12T16:31:43.566Z,6.07
2018-08-12T16:34:10.817Z,3.00
2018-08-12T16:36:38.275Z,3.73
2018-08-12T16:39:08.168Z,3.13
2018-08-12T16:41:36.025Z,4.70
2018-08-12T16:44:03.971Z,9.10
2018-08-12T16:46:31.272Z,3.63
2018-08-12T16:48:58.525Z,3.60
2018-08-12T16:51:25.757Z,3.00
2018-08-12T16:53:53.027Z,3.20
2018-08-12T16:56:20.560Z,2.90
2018-08-12T16:58:48.023Z,3.07
2018-08-12T17:01:15.176Z,3.43
2018-08-12T17:03:42.484Z,4.40
2018-08-12T17:06:09.706Z,3.20
2018-08-12T17:08:37.003Z,3.50
2018-08-12T17:11:06.168Z,2.90
2018-08-12T17:13:33.400Z,2.27
2018-08-12T17:16:00.678Z,2.90
2018-08-12T17:18:27.956Z,3.30
2018-08-12T17:20:55.158Z,3.00
2018-08-12T17:23:22.368Z,3.23
2018-08-12T17:25:50.442Z,3.47
2018-08-12T17:28:18.408Z,6.10
2018-08-12T17:30:46.667Z,3.60
2018-08-12T17:33:13.849Z,3.33
2018-08-12T17:35:40.999Z,2.83
2018-08-12T17:38:08.606Z,2.70
2018-08-12T17:40:35.732Z,2.90
2018-08-12T17:43:03.043Z,3.30
2018-08-12T17:45:30.249Z,3.53
2018-08-12T17:47:57.558Z,3.80
2018-08-12T17:50:24.701Z,3.70
2018-08-12T17:52:52.008Z,4.23
2018-08-12T17:55:19.312Z,3.67
2018-08-12T17:57:46.974Z,3.37
2018-08-12T18:00:16.113Z,4.57
2018-08-12T18:02:43.279Z,2.90
2018-08-12T18:05:10.683Z,3.80
2018-08-12T18:07:38.501Z,3.93
2018-08-12T18:10:05.857Z,3.97
2018-08-12T18:12:33.039Z,4.90
2018-08-12T18:15:00.271Z,4.00
2018-08-12T18:17:27.516Z,5.93
2018-08-12T18:19:55.424Z,5.57
2018-08-12T18:22:23.486Z,5.00
2018-08-12T18:24:50.789Z,4.17
2018-08-12T18:27:18.001Z,4.50
2018-08-12T18:29:45.480Z,6.13
2018-08-12T18:32:13.487Z,4.57
2018-08-12T18:34:40.768Z,5.07
2018-08-12T18:37:07.892Z,6.00
2018-08-12T18:39:35.151Z,8.33
2018-08-12T18:42:02.381Z,10.83
2018-08-12T18:44:29.582Z,5.07
2018-08-12T18:46:56.973Z,5.27
2018-08-12T18:49:24.272Z,8.90
2018-08-12T18:51:51.528Z,7.50
2018-08-12T18:54:18.783Z,5.00
2018-08-12T18:56:46.022Z,5.00
2018-08-12T18:59:13.320Z,4.27
2018-08-12T19:01:41.171Z,7.53
2018-08-12T19:04:08.780Z,8.43
2018-08-12T19:06:35.930Z,6.83
2018-08-12T19:09:05.616Z,5.57
2018-08-12T19:11:32.903Z,7.50
2018-08-12T19:14:00.081Z,9.10
2018-08-12T19:16:27.322Z,10.80
2018-08-12T19:18:54.491Z,9.93
2018-08-12T19:21:21.620Z,7.13
2018-08-12T19:23:48.841Z,11.00
2018-08-12T19:26:16.177Z,9.17
2018-08-12T19:28:43.454Z,8.40
2018-08-12T19:31:10.632Z,9.63
2018-08-12T19:33:37.931Z,9.37
2018-08-12T19:36:05.747Z,7.50
2018-08-12T19:38:33.605Z,6.13
2018-08-12T19:41:00.895Z,7.53
2018-08-12T19:43:28.909Z,6.90
2018-08-12T19:45:56.185Z,7.63
2018-08-12T19:48:24.596Z,7.47
2018-08-12T19:50:51.849Z,8.40
2018-08-12T19:53:19.096Z,9.13
2018-08-12T19:55:46.356Z,7.33
2018-08-12T19:58:13.538Z,6.70
2018-08-12T20:00:40.757Z,6.70
2018-08-12T20:03:08.316Z,5.90
2018-08-12T20:05:35.733Z,5.80
2018-08-12T20:08:02.953Z,6.20
2018-08-12T20:10:30.149Z,6.70
2018-08-12T20:12:57.472Z,5.83
2018-08-12T20:15:25.769Z,6.80
2018-08-12T20:17:53.676Z,6.53
2018-08-12T20:20:20.944Z,6.90
2018-08-12T20:22:48.210Z,7.50
2018-08-12T20:25:15.445Z,5.83
2018-08-12T20:27:42.819Z,6.93
2018-08-12T20:30:11.789Z,7.20
2018-08-12T20:32:39.197Z,7.50
2018-08-12T20:35:06.422Z,7.60
2018-08-12T20:37:33.662Z,6.90
2018-08-12T20:40:01.386Z,6.83
2018-08-12T20:42:28.602Z,7.90
2018-08-12T20:44:57.654Z,6.80
2018-08-12T20:47:25.510Z,6.43
2018-08-12T20:49:52.722Z,6.50
2018-08-12T20:52:20.583Z,7.53
2018-08-12T20:54:48.358Z,6.00
2018-08-12T20:57:15.607Z,7.03
2018-08-12T20:59:42.769Z,5.70
2018-08-12T21:02:10.010Z,6.00
2018-08-12T21:04:37.440Z,8.50
2018-08-12T21:07:04.744Z,7.53
2018-08-12T21:09:32.016Z,6.53
2018-08-12T21:11:59.328Z,8.47
2018-08-12T21:14:26.615Z,9.70
2018-08-12T21:16:55.356Z,10.67
2018-08-12T21:19:23.390Z,8.83
2018-08-12T21:21:57.545Z,8.60
2018-08-12T21:24:25.066Z,8.53
2018-08-12T21:26:52.428Z,9.07
2018-08-12T21:29:19.592Z,9.43
2018-08-12T21:31:46.920Z,8.77
2018-08-12T21:34:14.161Z,7.30
2018-08-12T21:36:41.415Z,7.17
2018-08-12T21:39:10.033Z,6.50
2018-08-12T21:41:37.204Z,6.37
2018-08-12T21:44:04.833Z,7.93
2018-08-12T21:46:31.972Z,9.10
2018-08-12T21:48:59.142Z,6.57
2018-08-12T21:51:26.981Z,5.83
2018-08-12T21:53:54.265Z,6.10
2018-08-12T21:56:22.114Z,5.83
2018-08-12T21:58:49.282Z,5.30
2018-08-12T22:01:16.478Z,7.13
2018-08-12T22:03:43.854Z,9.40
2018-08-12T22:06:11.132Z,10.33
2018-08-12T22:08:38.266Z,6.07
2018-08-12T22:11:05.471Z,5.60
2018-08-12T22:13:32.699Z,4.87
2018-08-12T22:15:59.968Z,4.70
2018-08-12T22:18:27.140Z,4.70
2018-08-12T22:20:54.293Z,4.30
2018-08-12T22:23:21.436Z,16.97
2018-08-12T22:25:48.623Z,12.47
2018-08-12T22:28:15.758Z,5.20
2018-08-12T22:30:42.948Z,4.63
2018-08-12T22:33:11.108Z,5.00
2018-08-12T22:35:38.297Z,4.70
2018-08-12T22:38:05.532Z,4.40
2018-08-12T22:40:32.744Z,4.90
2018-08-12T22:42:59.916Z,4.83
2018-08-12T22:45:27.161Z,5.27
2018-08-12T22:47:54.347Z,4.30
2018-08-12T22:50:21.481Z,4.10
2018-08-12T22:52:48.612Z,4.43
2018-08-12T22:55:15.735Z,4.00
2018-08-12T22:57:42.882Z,4.40
2018-08-12T23:00:13.360Z,4.27
2018-08-12T23:02:40.465Z,4.53
2018-08-12T23:05:07.728Z,3.97
2018-08-12T23:07:35.062Z,4.20
2018-08-12T23:10:02.306Z,4.10
2018-08-12T23:12:29.538Z,3.83
2018-08-12T23:15:08.212Z,3.80
2018-08-12T23:17:35.816Z,4.30
2018-08-12T23:20:03.058Z,4.70
2018-08-12T23:22:30.229Z,4.23
2018-08-12T23:24:57.493Z,4.60
2018-08-12T23:27:24.650Z,4.37
2018-08-12T23:29:51.915Z,4.00
2018-08-12T23:32:19.293Z,4.43
2018-08-12T23:34:46.402Z,3.90
2018-08-12T23:37:13.552Z,4.13
2018-08-12T23:39:40.756Z,4.47
2018-08-12T23:42:08.001Z,4.10
2018-08-12T23:44:35.209Z,4.10
2018-08-12T23:47:02.363Z,3.73
2018-08-12T23:49:29.965Z,4.00
2018-08-12T23:51:57.146Z,3.63
2018-08-12T23:54:24.288Z,3.73
2018-08-12T23:56:51.444Z,3.73
2018-08-12T23:59:18.549Z,4.60
